createdAt,value
2018-03-24T00:00:39.248Z,19.25
2018-03-24T00:01:39.258Z,19.25
2018-03-24T00:02:39.292Z,19.25
2018-03-24T00:03:39.276Z,19.25
2018-03-24T00:04:39.263Z,19.25
2018-03-24T00:05:39.264Z,19.25
2018-03-24T00:06:39.243Z,19.25
2018-03-24T00:07:39.279Z,19.25
2018-03-24T00:08:39.246Z,19.25
2018-03-24T00:09:39.260Z,19.25
2018-03-24T00:10:39.271Z,19.25
2018-03-24T00:11:39.309Z,19.25
2018-03-24T00:12:39.256Z,19.25
2018-03-24T00:13:39.258Z,19.25
2018-03-24T00:14:39.256Z,19.25
2018-03-24T00:15:39.279Z,19.25
2018-03-24T00:16:39.272Z,19.25
2018-03-24T00:17:39.254Z,19.25
2018-03-24T00:18:39.291Z,19.25
2018-03-24T00:19:39.256Z,19.25
2018-03-24T00:20:39.253Z,19.25
2018-03-24T00:21:39.263Z,19.25
2018-03-24T00:22:39.268Z,19.25
2018-03-24T00:23:39.251Z,19.25
2018-03-24T00:24:39.323Z,19.25
2018-03-24T00:25:39.249Z,19.25
2018-03-24T00:26:39.392Z,19.25
2018-03-24T00:27:39.248Z,19.25
2018-03-24T00:28:39.252Z,19.25
2018-03-24T00:29:39.275Z,19.25
2018-03-24T00:30:39.260Z,19.25
2018-03-24T00:31:39.233Z,19.25
2018-03-24T00:32:39.245Z,19.25
2018-03-24T00:33:39.268Z,19.25
2018-03-24T00:34:39.261Z,19.25
2018-03-24T00:35:39.278Z,19.25
2018-03-24T00:36:39.245Z,19.25
2018-03-24T00:37:39.271Z,19.25
2018-03-24T00:38:39.255Z,19.25
2018-03-24T00:39:39.260Z,19.25
2018-03-24T00:40:39.260Z,19.25
2018-03-24T00:41:39.236Z,19.25
2018-03-24T00:42:39.247Z,19.25
2018-03-24T00:43:39.251Z,19.25
2018-03-24T00:44:39.314Z,19.25
2018-03-24T00:45:39.242Z,19.25
2018-03-24T00:46:39.246Z,19.25
2018-03-24T00:47:39.257Z,19.25
2018-03-24T00:48:39.248Z,19.25
2018-03-24T00:49:39.270Z,19.25
2018-03-24T00:50:39.271Z,19.25
2018-03-24T00:51:39.239Z,19.25
2018-03-24T00:52:39.251Z,19.25
2018-03-24T00:53:39.273Z,19.25
2018-03-24T00:54:39.243Z,19.25
2018-03-24T00:55:39.246Z,19.25
2018-03-24T00:56:39.245Z,19.25
2018-03-24T00:57:39.254Z,19
2018-03-24T00:58:39.241Z,19.25
2018-03-24T00:59:39.244Z,19.25
2018-03-24T01:00:39.287Z,19
2018-03-24T01:01:39.282Z,19.25
2018-03-24T01:02:39.248Z,19.25
2018-03-24T01:03:39.295Z,19
2018-03-24T01:04:39.308Z,19.25
2018-03-24T01:05:39.519Z,19.25
2018-03-24T01:06:39.274Z,19
2018-03-24T01:07:39.258Z,19.25
2018-03-24T01:08:39.255Z,19.25
2018-03-24T01:09:39.253Z,19
2018-03-24T01:10:39.540Z,19.25
2018-03-24T01:11:39.303Z,19.25
2018-03-24T01:12:39.252Z,19
2018-03-24T01:13:39.257Z,19.25
2018-03-24T01:14:39.266Z,19
2018-03-24T01:15:39.270Z,19
2018-03-24T01:16:39.214Z,19
2018-03-24T01:17:39.266Z,19
2018-03-24T01:18:39.240Z,19
2018-03-24T01:19:39.235Z,19
2018-03-24T01:20:39.288Z,19
2018-03-24T01:21:39.252Z,19
2018-03-24T01:22:39.212Z,19
2018-03-24T01:23:39.238Z,19
2018-03-24T01:24:39.222Z,19
2018-03-24T01:25:39.255Z,19
2018-03-24T01:26:39.214Z,19
2018-03-24T01:27:39.225Z,19
2018-03-24T01:28:39.215Z,19
2018-03-24T01:29:39.235Z,19
2018-03-24T01:30:39.272Z,19
2018-03-24T01:31:39.258Z,19
2018-03-24T01:32:39.231Z,19
2018-03-24T01:33:39.240Z,19
2018-03-24T01:34:39.239Z,19
2018-03-24T01:35:39.229Z,19
2018-03-24T01:36:39.313Z,19
2018-03-24T01:37:39.266Z,19
2018-03-24T01:38:39.263Z,19
2018-03-24T01:39:39.250Z,19
2018-03-24T01:40:39.254Z,19
2018-03-24T01:41:39.217Z,19
2018-03-24T01:42:39.242Z,19
2018-03-24T01:43:39.250Z,19
2018-03-24T01:44:39.234Z,19
2018-03-24T01:45:39.215Z,19
2018-03-24T01:46:39.248Z,19
2018-03-24T01:47:39.274Z,19
2018-03-24T01:48:39.237Z,19
2018-03-24T01:49:39.229Z,19
2018-03-24T01:50:39.247Z,19
2018-03-24T01:51:39.236Z,19
2018-03-24T01:52:39.262Z,19
2018-03-24T01:53:39.228Z,19
2018-03-24T01:54:39.236Z,19
2018-03-24T01:55:39.237Z,19
2018-03-24T01:56:39.215Z,19
2018-03-24T01:57:39.240Z,19
2018-03-24T01:58:39.239Z,19
2018-03-24T01:59:39.257Z,19
2018-03-24T02:00:39.238Z,19
2018-03-24T02:01:39.275Z,19
2018-03-24T02:02:39.258Z,19
2018-03-24T02:03:39.223Z,19
2018-03-24T02:04:39.255Z,19
2018-03-24T02:05:39.225Z,19
2018-03-24T02:06:39.243Z,19
2018-03-24T02:07:39.252Z,19
2018-03-24T02:08:39.222Z,19
2018-03-24T02:09:39.222Z,19
2018-03-24T02:10:39.230Z,19
2018-03-24T02:11:39.222Z,19
2018-03-24T02:12:39.232Z,19
2018-03-24T02:13:39.235Z,19
2018-03-24T02:14:39.230Z,19
2018-03-24T02:15:39.256Z,19
2018-03-24T02:16:39.250Z,19
2018-03-24T02:17:39.266Z,19
2018-03-24T02:18:39.250Z,18.75
2018-03-24T02:19:39.231Z,19
2018-03-24T02:20:39.243Z,19
2018-03-24T02:21:39.252Z,19
2018-03-24T02:22:39.237Z,19
2018-03-24T02:23:39.227Z,19
2018-03-24T02:24:39.215Z,19
2018-03-24T02:25:39.231Z,19
2018-03-24T02:26:39.214Z,19
2018-03-24T02:27:39.335Z,18.75
2018-03-24T02:28:39.269Z,19
2018-03-24T02:29:39.240Z,19
2018-03-24T02:30:39.205Z,18.75
2018-03-24T02:31:39.220Z,19
2018-03-24T02:32:39.262Z,18.75
2018-03-24T02:33:39.226Z,18.75
2018-03-24T02:34:39.211Z,19
2018-03-24T02:35:39.226Z,19
2018-03-24T02:36:39.221Z,18.75
2018-03-24T02:37:39.230Z,18.75
2018-03-24T02:38:39.211Z,19
2018-03-24T02:39:39.230Z,18.75
2018-03-24T02:40:39.249Z,19
2018-03-24T02:41:39.241Z,18.75
2018-03-24T02:42:39.225Z,18.75
2018-03-24T02:43:39.226Z,18.75
2018-03-24T02:44:39.235Z,19
2018-03-24T02:45:39.281Z,18.75
2018-03-24T02:46:39.265Z,18.75
2018-03-24T02:47:39.215Z,18.75
2018-03-24T02:48:39.229Z,18.75
2018-03-24T02:49:39.222Z,18.75
2018-03-24T02:50:39.205Z,18.75
2018-03-24T02:51:39.230Z,18.75
2018-03-24T02:52:39.229Z,18.75
2018-03-24T02:53:39.226Z,18.75
2018-03-24T02:54:39.231Z,18.75
2018-03-24T02:55:39.249Z,18.75
2018-03-24T02:56:39.233Z,18.75
2018-03-24T02:57:39.237Z,18.75
2018-03-24T02:58:39.238Z,18.75
2018-03-24T02:59:39.244Z,18.75
2018-03-24T03:00:39.230Z,18.75
2018-03-24T03:01:39.213Z,18.75
2018-03-24T03:02:39.216Z,18.75
2018-03-24T03:03:39.236Z,18.75
2018-03-24T03:04:39.482Z,18.75
2018-03-24T03:05:39.232Z,18.75
2018-03-24T03:06:39.240Z,18.75
2018-03-24T03:07:39.231Z,18.75
2018-03-24T03:08:39.218Z,18.75
2018-03-24T03:09:39.228Z,18.75
2018-03-24T03:10:39.231Z,18.75
2018-03-24T03:11:39.231Z,18.75
2018-03-24T03:12:39.228Z,18.75
2018-03-24T03:13:39.219Z,18.75
2018-03-24T03:14:39.191Z,18.75
2018-03-24T03:15:39.208Z,18.75
2018-03-24T03:16:39.205Z,18.75
2018-03-24T03:17:39.223Z,18.75
2018-03-24T03:18:39.213Z,18.75
2018-03-24T03:19:39.215Z,18.75
2018-03-24T03:20:39.207Z,18.75
2018-03-24T03:21:39.515Z,18.75
2018-03-24T03:22:39.223Z,18.75
2018-03-24T03:23:39.210Z,18.75
2018-03-24T03:24:39.222Z,18.75
2018-03-24T03:25:39.295Z,18.75
2018-03-24T03:26:39.226Z,18.75
2018-03-24T03:27:39.226Z,18.75
2018-03-24T03:28:39.211Z,18.75
2018-03-24T03:29:39.192Z,18.75
2018-03-24T03:30:39.213Z,18.75
2018-03-24T03:31:39.211Z,18.75
2018-03-24T03:32:39.195Z,18.75
2018-03-24T03:33:39.203Z,18.75
2018-03-24T03:34:39.205Z,18.75
2018-03-24T03:35:39.208Z,18.75
2018-03-24T03:36:39.201Z,18.75
2018-03-24T03:37:39.184Z,18.75
2018-03-24T03:38:39.182Z,18.75
2018-03-24T03:39:39.456Z,18.75
2018-03-24T03:40:39.187Z,18.75
2018-03-24T03:41:39.212Z,18.75
2018-03-24T03:42:39.225Z,18.75
2018-03-24T03:43:39.208Z,18.75
2018-03-24T03:44:39.234Z,18.75
2018-03-24T03:45:39.203Z,18.75
2018-03-24T03:46:39.211Z,18.75
2018-03-24T03:47:39.183Z,18.75
2018-03-24T03:48:39.185Z,18.75
2018-03-24T03:49:39.188Z,18.75
2018-03-24T03:50:39.160Z,18.75
2018-03-24T03:51:39.440Z,18.5
2018-03-24T03:52:39.166Z,18.75
2018-03-24T03:53:39.193Z,18.75
2018-03-24T03:54:39.185Z,18.5
2018-03-24T03:55:39.210Z,18.75
2018-03-24T03:56:39.240Z,18.75
2018-03-24T03:57:39.201Z,18.5
2018-03-24T03:58:39.238Z,18.75
2018-03-24T03:59:39.180Z,18.75
2018-03-24T04:00:39.191Z,18.5
2018-03-24T04:01:39.160Z,18.75
2018-03-24T04:02:39.164Z,18.75
2018-03-24T04:03:39.194Z,18.75
2018-03-24T04:04:39.179Z,18.75
2018-03-24T04:05:39.169Z,18.75
2018-03-24T04:06:39.226Z,18.75
2018-03-24T04:07:39.188Z,18.75
2018-03-24T04:08:39.208Z,18.75
2018-03-24T04:09:39.167Z,18.5
2018-03-24T04:10:39.189Z,18.75
2018-03-24T04:11:39.238Z,18.75
2018-03-24T04:12:39.183Z,18.5
2018-03-24T04:13:39.200Z,18.75
2018-03-24T04:14:39.204Z,18.75
2018-03-24T04:15:39.199Z,18.5
2018-03-24T04:16:39.198Z,18.75
2018-03-24T04:17:39.180Z,18.75
2018-03-24T04:18:39.185Z,18.5
2018-03-24T04:19:39.189Z,18.5
2018-03-24T04:20:39.224Z,18.75
2018-03-24T04:21:39.178Z,18.5
2018-03-24T04:22:39.196Z,18.5
2018-03-24T04:23:39.169Z,18.5
2018-03-24T04:24:39.160Z,18.5
2018-03-24T04:25:39.176Z,18.5
2018-03-24T04:26:39.201Z,18.5
2018-03-24T04:27:39.182Z,18.5
2018-03-24T04:28:39.269Z,18.5
2018-03-24T04:29:39.164Z,18.5
2018-03-24T04:30:39.196Z,18.5
2018-03-24T04:31:39.163Z,18.5
2018-03-24T04:32:39.200Z,18.5
2018-03-24T04:33:39.189Z,18.5
2018-03-24T04:34:39.181Z,18.5
2018-03-24T04:35:39.175Z,18.5
2018-03-24T04:36:39.194Z,18.5
2018-03-24T04:37:39.208Z,18.5
2018-03-24T04:38:39.176Z,18.5
2018-03-24T04:39:39.206Z,18.5
2018-03-24T04:40:39.531Z,18.5
2018-03-24T04:41:39.172Z,18.5
2018-03-24T04:42:39.193Z,18.5
2018-03-24T04:43:39.194Z,18.5
2018-03-24T04:44:39.174Z,18.5
2018-03-24T04:45:39.215Z,18.5
2018-03-24T04:46:39.237Z,18.5
2018-03-24T04:47:39.167Z,18.5
2018-03-24T04:48:39.165Z,18.5
2018-03-24T04:49:39.165Z,18.5
2018-03-24T04:50:39.454Z,18.5
2018-03-24T04:51:39.161Z,18.5
2018-03-24T04:52:39.194Z,18.5
2018-03-24T04:53:39.180Z,18.5
2018-03-24T04:54:39.174Z,18.5
2018-03-24T04:55:39.184Z,18.5
2018-03-24T04:56:39.176Z,18.5
2018-03-24T04:57:39.163Z,18.5
2018-03-24T04:58:39.157Z,18.5
2018-03-24T04:59:39.191Z,18.5
2018-03-24T05:00:39.152Z,18.5
2018-03-24T05:01:39.185Z,18.5
2018-03-24T05:02:39.149Z,18.5
2018-03-24T05:03:39.162Z,18.5
2018-03-24T05:04:39.177Z,18.5
2018-03-24T05:05:39.186Z,18.5
2018-03-24T05:06:39.171Z,18.5
2018-03-24T05:07:39.193Z,18.5
2018-03-24T05:08:39.174Z,18.5
2018-03-24T05:09:39.409Z,18.5
2018-03-24T05:10:39.180Z,18.5
2018-03-24T05:11:39.152Z,18.5
2018-03-24T05:12:39.193Z,18.5
2018-03-24T05:13:39.199Z,18.5
2018-03-24T05:14:39.191Z,18.5
2018-03-24T05:15:39.182Z,18.5
2018-03-24T05:16:39.189Z,18.5
2018-03-24T05:17:39.153Z,18.5
2018-03-24T05:18:39.179Z,18.5
2018-03-24T05:19:39.453Z,18.5
2018-03-24T05:20:39.169Z,18.5
2018-03-24T05:21:39.173Z,18.5
2018-03-24T05:22:39.181Z,18.5
2018-03-24T05:23:39.222Z,18.5
2018-03-24T05:24:39.198Z,18.5
2018-03-24T05:25:39.196Z,18.5
2018-03-24T05:26:39.179Z,18.5
2018-03-24T05:27:39.159Z,18.5
2018-03-24T05:28:39.158Z,18.5
2018-03-24T05:29:39.156Z,18.5
2018-03-24T05:30:39.197Z,18.5
2018-03-24T05:31:39.138Z,18.5
2018-03-24T05:32:39.142Z,18.5
2018-03-24T05:33:39.182Z,18.75
2018-03-24T05:34:39.172Z,18.5
2018-03-24T05:35:39.162Z,18.75
2018-03-24T05:36:39.182Z,18.75
2018-03-24T05:37:39.156Z,18.75
2018-03-24T05:38:39.162Z,18.75
2018-03-24T05:39:39.175Z,18.75
2018-03-24T05:40:39.158Z,18.75
2018-03-24T05:41:39.293Z,18.75
2018-03-24T05:42:39.172Z,18.75
2018-03-24T05:43:39.219Z,18.75
2018-03-24T05:44:39.150Z,18.75
2018-03-24T05:45:39.184Z,18.75
2018-03-24T05:46:39.186Z,18.75
2018-03-24T05:47:39.144Z,18.75
2018-03-24T05:48:39.684Z,18.75
2018-03-24T05:49:39.176Z,18.75
2018-03-24T05:50:39.170Z,18.75
2018-03-24T05:51:39.163Z,18.75
2018-03-24T05:52:39.178Z,19
2018-03-24T05:53:39.142Z,19
2018-03-24T05:54:39.173Z,19
2018-03-24T05:55:39.166Z,19
2018-03-24T05:56:39.134Z,19
2018-03-24T05:57:39.484Z,19
2018-03-24T05:58:39.175Z,19
2018-03-24T05:59:39.144Z,19
2018-03-24T06:00:39.181Z,19
2018-03-24T06:01:39.163Z,19
2018-03-24T06:02:39.167Z,19
2018-03-24T06:03:39.150Z,19
2018-03-24T06:04:39.162Z,19
2018-03-24T06:05:39.142Z,19
2018-03-24T06:06:39.171Z,19
2018-03-24T06:07:39.207Z,19
2018-03-24T06:08:39.320Z,19
2018-03-24T06:09:39.172Z,19
2018-03-24T06:10:39.443Z,19
2018-03-24T06:11:39.157Z,19
2018-03-24T06:12:39.185Z,19
2018-03-24T06:13:39.193Z,19
2018-03-24T06:14:39.143Z,19
2018-03-24T06:15:39.211Z,19.25
2018-03-24T06:16:39.161Z,19.25
2018-03-24T06:17:39.138Z,19.25
2018-03-24T06:18:39.159Z,19.25
2018-03-24T06:19:39.140Z,19.25
2018-03-24T06:20:39.142Z,19.25
2018-03-24T06:21:39.132Z,19.25
2018-03-24T06:22:39.136Z,19.25
2018-03-24T06:23:39.137Z,19.25
2018-03-24T06:24:39.159Z,19.25
2018-03-24T06:25:39.157Z,19.25
2018-03-24T06:26:39.147Z,19.25
2018-03-24T06:27:39.145Z,19.25
2018-03-24T06:28:39.131Z,19.25
2018-03-24T06:29:39.243Z,19.25
2018-03-24T06:30:39.152Z,19.25
2018-03-24T06:31:39.152Z,19.25
2018-03-24T06:32:39.148Z,19.25
2018-03-24T06:33:39.145Z,19.25
2018-03-24T06:34:39.168Z,19.25
2018-03-24T06:35:39.129Z,19.25
2018-03-24T06:36:39.169Z,19.25
2018-03-24T06:37:39.253Z,19.25
2018-03-24T06:38:39.145Z,19.25
2018-03-24T06:39:39.207Z,19.25
2018-03-24T06:40:39.194Z,19.5
2018-03-24T06:41:39.145Z,19.5
2018-03-24T06:42:39.135Z,19.5
2018-03-24T06:43:39.131Z,19.5
2018-03-24T06:44:39.134Z,19.5
2018-03-24T06:45:39.116Z,19.5
2018-03-24T06:46:39.187Z,19.5
2018-03-24T06:47:39.120Z,19.5
2018-03-24T06:48:39.117Z,19.5
2018-03-24T06:49:39.135Z,19.5
2018-03-24T06:50:39.174Z,19.5
2018-03-24T06:51:39.126Z,19.5
2018-03-24T06:52:39.142Z,19.5
2018-03-24T06:53:39.117Z,19.5
2018-03-24T06:54:39.140Z,19.5
2018-03-24T06:55:39.136Z,19.5
2018-03-24T06:56:39.154Z,19.5
2018-03-24T06:57:39.131Z,19.5
2018-03-24T06:58:39.153Z,19.5
2018-03-24T06:59:39.156Z,19.5
2018-03-24T07:00:39.308Z,19.5
2018-03-24T07:01:39.126Z,19.5
2018-03-24T07:02:39.113Z,19.5
2018-03-24T07:03:39.124Z,19.5
2018-03-24T07:04:39.118Z,19.5
2018-03-24T07:05:39.172Z,19.5
2018-03-24T07:06:39.129Z,19.5
2018-03-24T07:07:39.103Z,19.5
2018-03-24T07:08:39.157Z,19.5
2018-03-24T07:09:39.146Z,19.5
2018-03-24T07:10:39.113Z,19.5
2018-03-24T07:11:39.132Z,19.5
2018-03-24T07:12:39.128Z,19.5
2018-03-24T07:13:39.128Z,19.5
2018-03-24T07:14:39.104Z,19.5
2018-03-24T07:15:39.114Z,19.5
2018-03-24T07:16:39.131Z,19.5
2018-03-24T07:17:39.116Z,19.5
2018-03-24T07:18:39.123Z,19.5
2018-03-24T07:19:38.965Z,19.5
2018-03-24T07:20:39.105Z,19.5
2018-03-24T07:21:39.112Z,19.5
2018-03-24T07:22:39.124Z,19.5
2018-03-24T07:23:39.134Z,19.5
2018-03-24T07:24:39.109Z,19.75
2018-03-24T07:25:39.122Z,19.5
2018-03-24T07:26:39.107Z,19.5
2018-03-24T07:27:39.136Z,19.5
2018-03-24T07:28:39.119Z,19.5
2018-03-24T07:29:39.105Z,19.5
2018-03-24T07:30:39.118Z,19.5
2018-03-24T07:31:39.127Z,19.5
2018-03-24T07:32:39.102Z,19.5
2018-03-24T07:33:39.103Z,19.5
2018-03-24T07:34:39.104Z,19.5
2018-03-24T07:35:39.112Z,19.5
2018-03-24T07:36:39.103Z,19.5
2018-03-24T07:37:39.096Z,19.5
2018-03-24T07:38:39.159Z,19.5
2018-03-24T07:39:39.138Z,19.75
2018-03-24T07:40:39.199Z,19.75
2018-03-24T07:41:39.120Z,19.75
2018-03-24T07:42:39.130Z,19.75
2018-03-24T07:43:39.133Z,19.5
2018-03-24T07:44:39.105Z,19.75
2018-03-24T07:45:39.133Z,19.75
2018-03-24T07:46:39.129Z,19.75
2018-03-24T07:47:39.355Z,19.75
2018-03-24T07:48:39.136Z,19.75
2018-03-24T07:49:39.127Z,19.75
2018-03-24T07:50:39.112Z,19.75
2018-03-24T07:51:39.117Z,19.75
2018-03-24T07:52:39.116Z,19.75
2018-03-24T07:53:39.107Z,19.75
2018-03-24T07:54:39.125Z,19.75
2018-03-24T07:55:39.109Z,19.75
2018-03-24T07:56:39.151Z,19.75
2018-03-24T07:57:39.084Z,19.75
2018-03-24T07:58:39.119Z,19.75
2018-03-24T07:59:39.097Z,19.75
2018-03-24T08:00:39.115Z,19.75
2018-03-24T08:01:39.187Z,19.75
2018-03-24T08:02:39.111Z,19.75
2018-03-24T08:03:39.109Z,19.75
2018-03-24T08:04:39.129Z,19.75
2018-03-24T08:05:39.094Z,19.75
2018-03-24T08:06:39.114Z,19.75
2018-03-24T08:07:39.107Z,19.75
2018-03-24T08:08:39.091Z,19.75
2018-03-24T08:09:39.376Z,19.75
2018-03-24T08:10:39.137Z,19.75
2018-03-24T08:11:39.124Z,19.75
2018-03-24T08:12:39.168Z,19.75
2018-03-24T08:13:39.105Z,19.75
2018-03-24T08:14:39.100Z,19.75
2018-03-24T08:15:39.104Z,19.75
2018-03-24T08:16:39.135Z,19.75
2018-03-24T08:17:39.085Z,19.75
2018-03-24T08:18:39.111Z,19.75
2018-03-24T08:19:39.089Z,19.75
2018-03-24T08:20:39.121Z,19.75
2018-03-24T08:21:39.125Z,19.75
2018-03-24T08:22:39.116Z,19.75
2018-03-24T08:23:39.104Z,19.75
2018-03-24T08:24:39.109Z,19.75
2018-03-24T08:25:39.131Z,19.75
2018-03-24T08:26:39.159Z,19.75
2018-03-24T08:27:39.090Z,19.75
2018-03-24T08:28:39.106Z,19.75
2018-03-24T08:29:39.092Z,19.75
2018-03-24T08:30:39.208Z,19.75
2018-03-24T08:31:39.133Z,20
2018-03-24T08:32:39.092Z,19.75
2018-03-24T08:33:39.081Z,19.75
2018-03-24T08:34:39.088Z,20
2018-03-24T08:35:39.081Z,20
2018-03-24T08:36:39.096Z,20
2018-03-24T08:37:39.086Z,20
2018-03-24T08:38:39.113Z,20
2018-03-24T08:39:39.085Z,20
2018-03-24T08:40:39.091Z,20
2018-03-24T08:41:39.098Z,20
2018-03-24T08:42:39.123Z,20
2018-03-24T08:43:39.092Z,20
2018-03-24T08:44:39.234Z,20
2018-03-24T08:45:39.099Z,20
2018-03-24T08:46:39.104Z,20
2018-03-24T08:47:39.088Z,20
2018-03-24T08:48:39.100Z,20
2018-03-24T08:49:39.092Z,20
2018-03-24T08:50:39.072Z,20
2018-03-24T08:51:39.136Z,20
2018-03-24T08:52:39.088Z,20
2018-03-24T08:53:39.081Z,20
2018-03-24T08:54:39.097Z,20
2018-03-24T08:55:39.088Z,20
2018-03-24T08:56:39.140Z,20
2018-03-24T08:57:39.096Z,20
2018-03-24T08:58:39.087Z,20
2018-03-24T08:59:39.079Z,20
2018-03-24T09:00:39.149Z,20
2018-03-24T09:01:39.101Z,20
2018-03-24T09:02:39.098Z,20
2018-03-24T09:03:39.096Z,20
2018-03-24T09:04:39.087Z,20
2018-03-24T09:05:39.079Z,20
2018-03-24T09:06:39.089Z,20
2018-03-24T09:07:39.083Z,20
2018-03-24T09:08:39.079Z,20
2018-03-24T09:09:39.073Z,20
2018-03-24T09:10:39.090Z,20
2018-03-24T09:11:39.061Z,20
2018-03-24T09:12:39.091Z,20
2018-03-24T09:13:39.108Z,20
2018-03-24T09:14:39.109Z,20
2018-03-24T09:15:39.084Z,20
2018-03-24T09:16:39.093Z,20
2018-03-24T09:17:39.077Z,20
2018-03-24T09:18:39.101Z,20
2018-03-24T09:19:39.081Z,20
2018-03-24T09:20:39.127Z,20
2018-03-24T09:21:39.079Z,20
2018-03-24T09:22:39.080Z,20
2018-03-24T09:23:39.100Z,20
2018-03-24T09:24:39.118Z,20
2018-03-24T09:25:39.094Z,20
2018-03-24T09:26:38.979Z,20
2018-03-24T09:27:39.091Z,20
2018-03-24T09:28:39.076Z,20
2018-03-24T09:29:39.097Z,20
2018-03-24T09:30:39.087Z,20
2018-03-24T09:31:39.078Z,20
2018-03-24T09:32:39.070Z,20
2018-03-24T09:33:39.081Z,20
2018-03-24T09:34:39.083Z,20
2018-03-24T09:35:39.069Z,20
2018-03-24T09:36:39.058Z,20
2018-03-24T09:37:39.085Z,20
2018-03-24T09:38:39.069Z,20
2018-03-24T09:39:39.121Z,20
2018-03-24T09:40:39.103Z,20
2018-03-24T09:41:39.064Z,20
2018-03-24T09:42:39.080Z,20
2018-03-24T09:43:39.073Z,20
2018-03-24T09:44:39.064Z,20
2018-03-24T09:45:39.067Z,20
2018-03-24T09:46:39.066Z,20
2018-03-24T09:47:39.073Z,20
2018-03-24T09:48:39.055Z,20
2018-03-24T09:49:39.061Z,20
2018-03-24T09:50:39.078Z,20
2018-03-24T09:51:39.144Z,20
2018-03-24T09:52:39.145Z,20
2018-03-24T09:53:39.053Z,20
2018-03-24T09:54:39.078Z,20
2018-03-24T09:55:39.070Z,20
2018-03-24T09:56:39.061Z,20
2018-03-24T09:57:39.080Z,20
2018-03-24T09:58:39.068Z,20
2018-03-24T09:59:39.081Z,20
2018-03-24T10:00:39.061Z,20
2018-03-24T10:01:39.108Z,20
2018-03-24T10:02:39.055Z,20
2018-03-24T10:03:39.063Z,20
2018-03-24T10:04:39.070Z,20
2018-03-24T10:05:39.061Z,20
2018-03-24T10:06:39.076Z,20
2018-03-24T10:07:39.057Z,20
2018-03-24T10:08:39.086Z,20
2018-03-24T10:09:39.031Z,20
2018-03-24T10:10:39.066Z,20
2018-03-24T10:11:39.064Z,20
2018-03-24T10:12:39.048Z,20
2018-03-24T10:13:39.070Z,20
2018-03-24T10:14:39.103Z,20
2018-03-24T10:15:39.067Z,20
2018-03-24T10:16:39.167Z,20
2018-03-24T10:17:39.141Z,20
2018-03-24T10:18:39.082Z,20
2018-03-24T10:19:39.058Z,20
2018-03-24T10:20:39.056Z,20
2018-03-24T10:21:39.028Z,20
2018-03-24T10:22:39.085Z,20
2018-03-24T10:23:39.060Z,20
2018-03-24T10:24:39.067Z,20
2018-03-24T10:25:39.067Z,20
2018-03-24T10:26:39.089Z,20.25
2018-03-24T10:27:39.084Z,20.25
2018-03-24T10:28:39.076Z,20.25
2018-03-24T10:29:39.052Z,20.25
2018-03-24T10:30:39.092Z,20.25
2018-03-24T10:31:39.149Z,20.25
2018-03-24T10:32:39.079Z,20.25
2018-03-24T10:33:39.056Z,20.25
2018-03-24T10:34:39.054Z,20.25
2018-03-24T10:35:39.049Z,20.25
2018-03-24T10:36:39.046Z,20.25
2018-03-24T10:37:39.075Z,20.25
2018-03-24T10:38:39.056Z,20.25
2018-03-24T10:39:39.074Z,20.25
2018-03-24T10:40:39.085Z,20.25
2018-03-24T10:41:39.092Z,20.25
2018-03-24T10:42:39.052Z,20.25
2018-03-24T10:43:39.073Z,20.25
2018-03-24T10:44:39.051Z,20.25
2018-03-24T10:45:39.039Z,20.25
2018-03-24T10:46:39.060Z,20.25
2018-03-24T10:47:39.125Z,20.25
2018-03-24T10:48:39.046Z,20.25
2018-03-24T10:49:39.046Z,20.25
2018-03-24T10:50:39.103Z,20.25
2018-03-24T10:51:39.090Z,20.25
2018-03-24T10:52:39.195Z,20.25
2018-03-24T10:53:39.042Z,20.25
2018-03-24T10:54:39.052Z,20.25
2018-03-24T10:55:39.047Z,20.25
2018-03-24T10:56:39.050Z,20.25
2018-03-24T10:57:39.078Z,20.25
2018-03-24T10:58:39.042Z,20.25
2018-03-24T10:59:39.064Z,20.25
2018-03-24T11:00:39.066Z,20.25
2018-03-24T11:01:39.059Z,20.25
2018-03-24T11:02:39.042Z,20.25
2018-03-24T11:03:39.060Z,20.25
2018-03-24T11:04:39.034Z,20.25
2018-03-24T11:05:39.057Z,20.25
2018-03-24T11:06:39.022Z,20.25
2018-03-24T11:07:39.070Z,20.25
2018-03-24T11:08:39.080Z,20.25
2018-03-24T11:09:39.048Z,20.25
2018-03-24T11:10:39.121Z,20.25
2018-03-24T11:11:39.066Z,20.25
2018-03-24T11:12:39.114Z,20.25
2018-03-24T11:13:39.100Z,20.25
2018-03-24T11:14:39.063Z,20.25
2018-03-24T11:15:39.062Z,20.25
2018-03-24T11:16:39.089Z,20.5
2018-03-24T11:17:39.049Z,20.5
2018-03-24T11:18:39.075Z,20.5
2018-03-24T11:19:39.070Z,20.5
2018-03-24T11:20:39.053Z,20.5
2018-03-24T11:21:39.050Z,20.5
2018-03-24T11:22:39.057Z,20.5
2018-03-24T11:23:39.048Z,20.5
2018-03-24T11:24:39.081Z,20.5
2018-03-24T11:25:39.060Z,20.5
2018-03-24T11:26:39.050Z,20.5
2018-03-24T11:27:39.049Z,20.5
2018-03-24T11:28:39.058Z,20.5
2018-03-24T11:29:39.043Z,20.5
2018-03-24T11:30:39.043Z,20.5
2018-03-24T11:31:39.036Z,20.5
2018-03-24T11:32:39.109Z,20.5
2018-03-24T11:33:39.058Z,20.5
2018-03-24T11:34:39.085Z,20.5
2018-03-24T11:35:39.039Z,20.5
2018-03-24T11:36:39.050Z,20.5
2018-03-24T11:37:39.054Z,20.5
2018-03-24T11:38:39.034Z,20.5
2018-03-24T11:39:39.052Z,20.5
2018-03-24T11:40:39.038Z,20.5
2018-03-24T11:41:39.039Z,20.5
2018-03-24T11:42:39.069Z,20.5
2018-03-24T11:43:39.054Z,20.5
2018-03-24T11:44:39.064Z,20.5
2018-03-24T11:45:39.050Z,20.5
2018-03-24T11:46:39.079Z,20.5
2018-03-24T11:47:39.029Z,20.5
2018-03-24T11:48:39.053Z,20.5
2018-03-24T11:49:39.059Z,20.5
2018-03-24T11:50:39.025Z,20.5
2018-03-24T11:51:39.072Z,20.5
2018-03-24T11:52:39.061Z,20.75
2018-03-24T11:53:39.048Z,20.5
2018-03-24T11:54:39.043Z,20.5
2018-03-24T11:55:39.028Z,20.5
2018-03-24T11:56:39.065Z,20.5
2018-03-24T11:57:39.024Z,20.5
2018-03-24T11:58:39.112Z,20.5
2018-03-24T11:59:39.050Z,20.5
2018-03-24T12:00:39.019Z,20.5
2018-03-24T12:01:39.081Z,20.5
2018-03-24T12:02:39.013Z,20.5
2018-03-24T12:03:39.124Z,20.5
2018-03-24T12:04:39.056Z,20.75
2018-03-24T12:05:39.014Z,20.5
2018-03-24T12:06:39.009Z,20.5
2018-03-24T12:07:39.035Z,20.75
2018-03-24T12:08:38.997Z,20.5
2018-03-24T12:09:39.027Z,20.5
2018-03-24T12:10:39.088Z,20.5
2018-03-24T12:11:39.056Z,20.5
2018-03-24T12:12:39.050Z,20.5
2018-03-24T12:13:39.034Z,20.5
2018-03-24T12:14:39.033Z,20.5
2018-03-24T12:15:39.041Z,20.5
2018-03-24T12:16:39.040Z,20.5
2018-03-24T12:17:39.053Z,20.5
2018-03-24T12:18:39.057Z,20.5
2018-03-24T12:19:39.061Z,20.5
2018-03-24T12:20:39.014Z,20.5
2018-03-24T12:21:39.157Z,20.5
2018-03-24T12:22:39.050Z,20.5
2018-03-24T12:23:39.072Z,20.5
2018-03-24T12:24:39.064Z,20.5
2018-03-24T12:25:39.102Z,20.5
2018-03-24T12:26:39.048Z,20.5
2018-03-24T12:27:39.010Z,20.5
2018-03-24T12:28:39.052Z,20.5
2018-03-24T12:29:39.102Z,20.5
2018-03-24T12:30:39.044Z,20.5
2018-03-24T12:31:39.107Z,20.5
2018-03-24T12:32:39.223Z,20.5
2018-03-24T12:33:39.018Z,20.25
2018-03-24T12:34:39.012Z,20.5
2018-03-24T12:35:39.080Z,20.5
2018-03-24T12:36:39.096Z,20.25
2018-03-24T12:37:39.116Z,20.5
2018-03-24T12:38:39.113Z,20.5
2018-03-24T12:39:39.017Z,20.25
2018-03-24T12:40:39.060Z,20.5
2018-03-24T12:41:39.008Z,20.5
2018-03-24T12:42:39.027Z,20.25
2018-03-24T12:43:39.123Z,20.25
2018-03-24T12:44:39.115Z,20.25
2018-03-24T12:45:39.041Z,20.25
2018-03-24T12:46:39.004Z,20.25
2018-03-24T12:47:39.010Z,20.25
2018-03-24T12:48:39.105Z,20.25
2018-03-24T12:49:39.004Z,20.25
2018-03-24T12:50:39.036Z,20.25
2018-03-24T12:51:39.033Z,20.25
2018-03-24T12:52:39.043Z,20.25
2018-03-24T12:53:39.020Z,20.25
2018-03-24T12:54:39.022Z,20.25
2018-03-24T12:55:39.025Z,20.25
2018-03-24T12:56:39.034Z,20.25
2018-03-24T12:57:39.017Z,20.25
2018-03-24T12:58:39.013Z,20.25
2018-03-24T12:59:38.996Z,20.25
2018-03-24T13:00:39.053Z,20.25
2018-03-24T13:01:39.046Z,20.25
2018-03-24T13:02:39.019Z,20.25
2018-03-24T13:03:39.042Z,20.25
2018-03-24T13:04:39.034Z,20.25
2018-03-24T13:05:39.042Z,20.25
2018-03-24T13:06:39.134Z,20.25
2018-03-24T13:07:39.037Z,20.25
2018-03-24T13:08:39.034Z,20.25
2018-03-24T13:09:39.015Z,20.25
2018-03-24T13:10:39.046Z,20.25
2018-03-24T13:11:39.018Z,20.25
2018-03-24T13:12:39.032Z,20.25
2018-03-24T13:13:39.031Z,20.25
2018-03-24T13:14:38.997Z,20.25
2018-03-24T13:15:39.032Z,20.25
2018-03-24T13:16:39.038Z,20.25
2018-03-24T13:17:39.008Z,20.25
2018-03-24T13:18:39.023Z,20.25
2018-03-24T13:19:39.028Z,20.25
2018-03-24T13:20:39.013Z,20.25
2018-03-24T13:21:39.012Z,20.25